createdAt,value
2018-09-17T00:00:38.568Z,9.00
2018-09-17T00:03:06.950Z,8.23
2018-09-17T00:05:35.333Z,7.67
2018-09-17T00:08:03.685Z,8.53
2018-09-17T00:10:32.068Z,8.63
2018-09-17T00:13:00.418Z,7.30
2018-09-17T00:15:28.812Z,11.03
2018-09-17T00:17:57.201Z,7.57
2018-09-17T00:20:25.884Z,8.07
2018-09-17T00:22:54.251Z,9.27
2018-09-17T00:25:22.570Z,8.67
2018-09-17T00:27:50.912Z,10.77
2018-09-17T00:30:19.273Z,9.40
2018-09-17T00:32:47.580Z,9.17
2018-09-17T00:35:15.927Z,10.43
2018-09-17T00:37:44.312Z,11.40
2018-09-17T00:40:12.678Z,10.17
2018-09-17T00:42:41.047Z,9.60
2018-09-17T00:45:09.380Z,7.60
2018-09-17T00:47:37.760Z,8.57
2018-09-17T00:50:06.121Z,9.03
2018-09-17T00:52:34.450Z,8.53
2018-09-17T00:55:02.808Z,11.23
2018-09-17T00:57:31.136Z,7.63
2018-09-17T00:59:59.458Z,9.23
2018-09-17T01:02:27.785Z,6.50
2018-09-17T01:04:56.141Z,6.90
2018-09-17T01:07:24.514Z,11.03
2018-09-17T01:09:52.851Z,9.17
2018-09-17T01:12:21.191Z,8.23
2018-09-17T01:14:49.497Z,10.17
2018-09-17T01:17:17.852Z,8.23
2018-09-17T01:19:46.210Z,9.60
2018-09-17T01:22:14.512Z,8.63
2018-09-17T01:24:42.843Z,7.37
2018-09-17T01:27:11.157Z,8.80
2018-09-17T01:29:39.840Z,8.23
2018-09-17T01:32:08.201Z,8.00
2018-09-17T01:34:36.554Z,7.73
2018-09-17T01:37:04.864Z,8.93
2018-09-17T01:39:33.159Z,7.80
2018-09-17T01:42:01.506Z,8.63
2018-09-17T01:44:29.856Z,6.80
2018-09-17T01:46:58.181Z,6.93
2018-09-17T01:49:26.533Z,6.67
2018-09-17T01:51:54.847Z,7.23
2018-09-17T01:54:23.205Z,8.30
2018-09-17T01:56:51.555Z,9.17
2018-09-17T01:59:19.938Z,8.67
2018-09-17T02:01:48.297Z,7.47
2018-09-17T02:04:16.670Z,9.00
2018-09-17T02:06:45.002Z,7.80
2018-09-17T02:09:13.372Z,9.07
2018-09-17T02:11:41.873Z,7.53
2018-09-17T02:14:10.200Z,8.40
2018-09-17T02:16:38.860Z,9.23
2018-09-17T02:19:07.207Z,8.47
2018-09-17T02:21:35.542Z,6.63
2018-09-17T02:24:04.095Z,8.77
2018-09-17T02:26:32.418Z,7.57
2018-09-17T02:29:00.820Z,10.43
2018-09-17T02:31:29.155Z,7.53
2018-09-17T02:33:57.477Z,8.47
2018-09-17T02:36:25.820Z,8.50
2018-09-17T02:38:54.138Z,9.10
2018-09-17T02:41:22.496Z,5.73
2018-09-17T02:43:50.811Z,7.13
2018-09-17T02:46:19.148Z,7.70
2018-09-17T02:48:47.481Z,8.67
2018-09-17T02:51:15.824Z,7.73
2018-09-17T02:53:44.204Z,7.57
2018-09-17T02:56:12.713Z,7.03
2018-09-17T02:58:41.061Z,6.23
2018-09-17T03:01:09.394Z,6.53
2018-09-17T03:03:37.712Z,9.67
2018-09-17T03:06:06.025Z,7.40
2018-09-17T03:08:34.394Z,8.70
2018-09-17T03:11:02.702Z,7.03
2018-09-17T03:13:31.028Z,8.70
2018-09-17T03:15:59.351Z,6.40
2018-09-17T03:18:39.531Z,6.90
2018-09-17T03:21:08.321Z,7.67
2018-09-17T03:23:37.742Z,7.73
2018-09-17T03:26:06.450Z,6.27
2018-09-17T03:28:34.770Z,6.67
2018-09-17T03:31:03.059Z,8.30
2018-09-17T03:33:31.447Z,7.03
2018-09-17T03:36:00.004Z,8.20
2018-09-17T03:38:37.832Z,8.40
2018-09-17T03:41:07.023Z,7.30
2018-09-17T03:43:36.117Z,7.90
2018-09-17T03:46:04.668Z,7.90
2018-09-17T03:48:34.020Z,6.77
2018-09-17T03:51:03.420Z,8.17
2018-09-17T03:53:32.070Z,7.17
2018-09-17T03:56:00.416Z,6.60
2018-09-17T03:58:29.295Z,7.73
2018-09-17T04:00:57.878Z,7.60
2018-09-17T04:03:26.221Z,8.80
2018-09-17T04:05:54.561Z,8.50
2018-09-17T04:08:22.908Z,10.00
2018-09-17T04:10:51.240Z,6.53
2018-09-17T04:13:19.565Z,8.30
2018-09-17T04:15:48.025Z,8.23
2018-09-17T04:18:16.444Z,8.20
2018-09-17T04:20:44.766Z,12.03
2018-09-17T04:23:13.146Z,7.77
2018-09-17T04:25:41.500Z,10.40
2018-09-17T04:28:09.853Z,7.33
2018-09-17T04:30:38.207Z,10.40
2018-09-17T04:33:07.509Z,9.00
2018-09-17T04:35:35.968Z,10.07
2018-09-17T04:38:04.295Z,9.03
2018-09-17T04:40:32.604Z,9.57
2018-09-17T04:43:00.938Z,9.13
2018-09-17T04:45:29.324Z,12.47
2018-09-17T04:47:57.639Z,10.33
2018-09-17T04:50:25.991Z,9.40
2018-09-17T04:52:54.278Z,7.53
2018-09-17T04:55:22.585Z,10.40
2018-09-17T04:57:50.920Z,8.07
2018-09-17T05:00:19.292Z,7.63
2018-09-17T05:02:47.627Z,8.77
2018-09-17T05:05:15.977Z,9.00
2018-09-17T05:07:44.334Z,10.20
2018-09-17T05:10:12.650Z,8.80
2018-09-17T05:12:41.039Z,7.80
2018-09-17T05:15:09.363Z,9.87
2018-09-17T05:17:37.700Z,10.23
2018-09-17T05:20:06.032Z,10.07
2018-09-17T05:22:34.334Z,8.93
2018-09-17T05:25:02.677Z,9.27
2018-09-17T05:27:31.007Z,8.10
2018-09-17T05:29:59.318Z,8.03
2018-09-17T05:32:27.607Z,9.63
2018-09-17T05:34:55.956Z,13.20
2018-09-17T05:37:24.439Z,10.33
2018-09-17T05:39:59.019Z,10.80
2018-09-17T05:43:57.397Z,9.77
2018-09-17T05:46:25.728Z,8.03
2018-09-17T05:48:54.077Z,7.93
2018-09-17T05:51:22.364Z,10.37
2018-09-17T05:53:50.766Z,10.43
2018-09-17T05:56:19.552Z,11.07
2018-09-17T05:58:47.891Z,9.83
2018-09-17T06:01:16.190Z,9.70
2018-09-17T06:03:44.518Z,9.57
2018-09-17T06:06:12.832Z,9.37
2018-09-17T06:08:41.132Z,8.80
2018-09-17T06:11:09.883Z,9.00
2018-09-17T06:13:38.210Z,9.80
2018-09-17T06:16:06.540Z,9.43
2018-09-17T06:18:34.895Z,10.20
2018-09-17T06:26:52.994Z,9.13
2018-09-17T06:29:21.283Z,11.03
2018-09-17T06:31:49.613Z,8.60
2018-09-17T06:34:17.910Z,10.10
2018-09-17T06:36:47.094Z,8.60
2018-09-17T06:39:15.964Z,8.63
2018-09-17T06:41:44.811Z,9.55
2018-09-17T06:44:14.064Z,11.78
2018-09-17T06:46:43.024Z,8.70
2018-09-17T07:06:32.012Z,9.83
2018-09-17T07:09:00.894Z,8.53
2018-09-17T07:11:29.894Z,12.55
2018-09-17T07:13:58.765Z,9.80
2018-09-17T07:16:27.678Z,9.03
2018-09-17T07:18:56.791Z,8.65
2018-09-17T07:21:25.660Z,8.68
2018-09-17T07:23:54.582Z,10.50
2018-09-17T07:26:23.514Z,8.95
2018-09-17T07:46:12.965Z,12.78
2018-09-17T07:55:26.995Z,9.48
2018-09-17T07:57:55.866Z,9.90
2018-09-17T08:00:24.329Z,19.03
2018-09-17T08:02:53.295Z,12.03
2018-09-17T08:05:22.158Z,12.45
2018-09-17T08:25:11.451Z,13.20
2018-09-17T08:27:40.319Z,12.78
2018-09-17T08:30:09.984Z,14.68
2018-09-17T08:32:38.927Z,13.65
2018-09-17T08:35:08.930Z,16.35
2018-09-17T08:37:37.832Z,13.05
2018-09-17T08:40:07.110Z,15.03
2018-09-17T08:42:36.079Z,16.12
2018-09-17T08:45:05.312Z,20.30
2018-09-17T08:50:33.192Z,14.10
2018-09-17T08:53:02.177Z,16.37
2018-09-17T08:55:36.870Z,13.60
2018-09-17T08:58:11.116Z,19.10
2018-09-17T09:00:45.488Z,17.52
2018-09-17T09:03:18.597Z,17.90
2018-09-17T09:05:52.958Z,16.50
2018-09-17T09:08:21.824Z,15.72
2018-09-17T09:10:59.665Z,17.85
2018-09-17T09:15:39.179Z,17.77
2018-09-17T09:18:09.060Z,19.02
2018-09-17T09:20:39.088Z,16.30
2018-09-17T09:23:08.266Z,17.52
2018-09-17T09:25:37.152Z,16.48
2018-09-17T09:28:06.190Z,19.87
2018-09-17T09:30:35.147Z,21.02
2018-09-17T09:36:04.408Z,20.37
2018-09-17T09:38:33.268Z,18.57
2018-09-17T09:41:02.187Z,19.35
2018-09-17T09:43:31.093Z,18.57
2018-09-17T09:46:00.002Z,21.77
2018-09-17T09:48:28.915Z,19.48
2018-09-17T09:50:57.830Z,19.65
2018-09-17T09:53:26.849Z,17.42
2018-09-17T09:55:56.074Z,20.65
2018-09-17T10:01:32.194Z,15.63
2018-09-17T10:04:06.384Z,17.73
2018-09-17T10:06:35.289Z,14.80
2018-09-17T10:09:10.379Z,17.57
2018-09-17T10:11:44.598Z,14.60
2018-09-17T10:14:18.883Z,15.03
2018-09-17T10:16:53.234Z,15.83
2018-09-17T10:19:24.192Z,16.50
2018-09-17T10:27:45.512Z,17.10
2018-09-17T10:30:14.428Z,13.65
2018-09-17T10:32:43.329Z,14.78
2018-09-17T10:35:12.284Z,13.45
2018-09-17T10:37:41.156Z,13.98
2018-09-17T10:40:10.059Z,15.50
2018-09-17T10:42:38.933Z,12.35
2018-09-17T10:45:07.817Z,12.88
2018-09-17T10:47:36.730Z,16.50
2018-09-17T10:50:06.046Z,14.07
2018-09-17T10:52:34.921Z,12.40
2018-09-17T10:55:04.076Z,12.73
2018-09-17T10:57:32.992Z,11.03
2018-09-17T11:00:02.074Z,13.22
2018-09-17T11:02:31.018Z,12.18
2018-09-17T11:04:59.915Z,12.95
2018-09-17T11:07:28.803Z,11.70
2018-09-17T11:09:57.655Z,11.73
2018-09-17T11:18:13.596Z,11.95
2018-09-17T11:20:42.489Z,9.40
2018-09-17T11:23:11.562Z,12.60
2018-09-17T11:25:40.489Z,8.48
2018-09-17T11:28:09.485Z,10.53
2018-09-17T11:30:38.358Z,9.65
2018-09-17T11:33:07.266Z,9.68
2018-09-17T11:35:36.161Z,7.95
2018-09-17T11:38:05.416Z,9.30
2018-09-17T11:40:34.364Z,8.00
2018-09-17T11:43:03.336Z,9.13
2018-09-17T11:45:32.204Z,9.43
2018-09-17T11:48:01.070Z,7.37
2018-09-17T11:50:30.306Z,9.83
2018-09-17T11:52:59.195Z,7.45
2018-09-17T11:55:31.275Z,7.25
2018-09-17T11:58:00.507Z,9.78
2018-09-17T12:00:34.552Z,8.17
2018-09-17T12:03:08.815Z,8.18
2018-09-17T12:05:43.148Z,7.50
2018-09-17T12:08:15.220Z,5.28
2018-09-17T12:10:44.085Z,7.78
2018-09-17T12:13:12.974Z,6.30
2018-09-17T12:15:43.041Z,5.30
2018-09-17T12:18:13.046Z,5.05
2018-09-17T12:20:42.313Z,6.67
2018-09-17T12:23:11.447Z,6.75
2018-09-17T12:25:40.376Z,6.50
2018-09-17T12:28:09.613Z,5.12
2018-09-17T12:30:38.536Z,4.15
2018-09-17T12:33:07.428Z,5.62
2018-09-17T12:35:36.342Z,7.47
2018-09-17T12:38:05.717Z,7.03
2018-09-17T12:40:34.621Z,4.70
2018-09-17T12:43:03.545Z,6.42
2018-09-17T12:45:32.648Z,7.47
2018-09-17T12:48:01.540Z,3.15
2018-09-17T12:50:30.426Z,4.62
2018-09-17T12:52:59.505Z,3.62
2018-09-17T12:55:28.369Z,4.15
2018-09-17T12:57:57.233Z,3.50
2018-09-17T13:06:12.459Z,4.12
2018-09-17T13:08:41.355Z,5.20
2018-09-17T13:11:10.611Z,3.95
2018-09-17T13:13:40.079Z,7.58
2018-09-17T13:16:08.975Z,3.60
2018-09-17T13:18:37.862Z,5.80
2018-09-17T13:21:06.720Z,3.62
2018-09-17T13:23:35.602Z,4.87
2018-09-17T13:26:04.832Z,3.65
2018-09-17T13:28:33.703Z,3.08
2018-09-17T13:31:02.591Z,3.65
2018-09-17T13:33:31.481Z,2.50
2018-09-17T13:36:00.546Z,3.20
2018-09-17T13:38:29.441Z,3.33
2018-09-17T13:40:58.291Z,3.65
2018-09-17T13:43:27.177Z,3.52
2018-09-17T13:45:56.261Z,3.70
2018-09-17T13:48:25.314Z,3.75
2018-09-17T13:53:48.185Z,2.83
2018-09-17T13:56:17.229Z,3.90
2018-09-17T13:58:46.089Z,4.25
2018-09-17T14:01:14.673Z,2.67
2018-09-17T14:03:43.545Z,3.15
2018-09-17T14:06:12.419Z,3.35
2018-09-17T14:08:41.504Z,4.22
2018-09-17T14:11:10.364Z,3.42
2018-09-17T14:13:39.277Z,3.02
2018-09-17T14:33:37.749Z,5.28
2018-09-17T14:36:06.804Z,3.62
2018-09-17T14:38:36.051Z,2.77
2018-09-17T14:41:05.145Z,3.05
2018-09-17T14:43:33.972Z,2.17
2018-09-17T14:46:03.081Z,3.65
2018-09-17T14:48:32.163Z,3.67
2018-09-17T14:51:01.241Z,3.75
2018-09-17T14:59:17.252Z,4.05
2018-09-17T15:01:46.067Z,3.50
2018-09-17T15:04:15.316Z,2.95
2018-09-17T15:06:44.355Z,4.62
2018-09-17T15:09:13.220Z,6.90
2018-09-17T15:11:41.799Z,2.17
2018-09-17T15:14:10.910Z,5.07
2018-09-17T15:16:39.710Z,3.13
2018-09-17T15:19:08.367Z,4.13
2018-09-17T15:21:37.168Z,7.70
2018-09-17T15:24:06.180Z,2.73
2018-09-17T15:26:34.910Z,2.93
2018-09-17T15:29:04.083Z,4.57
2018-09-17T15:31:32.665Z,3.43
2018-09-17T15:34:01.335Z,2.77
2018-09-17T15:36:30.261Z,4.57
2018-09-17T15:38:59.118Z,3.87
2018-09-17T15:41:27.979Z,3.20
2018-09-17T15:43:56.699Z,5.97
2018-09-17T15:46:25.539Z,5.63
2018-09-17T15:48:54.166Z,3.97
2018-09-17T15:51:22.821Z,5.80
2018-09-17T15:53:51.481Z,3.43
2018-09-17T15:56:20.198Z,4.43
2018-09-17T15:58:48.967Z,4.60
2018-09-17T16:01:17.514Z,6.27
2018-09-17T16:03:46.090Z,4.47
2018-09-17T16:06:14.683Z,4.27
2018-09-17T16:08:43.303Z,7.80
2018-09-17T16:11:12.103Z,7.13
2018-09-17T16:13:40.734Z,6.43
2018-09-17T16:16:09.647Z,6.23
2018-09-17T16:18:38.242Z,4.33
2018-09-17T16:21:06.842Z,4.23
2018-09-17T16:23:35.454Z,5.27
2018-09-17T16:26:04.199Z,5.67
2018-09-17T16:28:32.808Z,7.50
2018-09-17T16:31:01.412Z,5.57
2018-09-17T16:33:30.284Z,4.80
2018-09-17T16:35:59.047Z,5.83
2018-09-17T16:38:27.662Z,7.20
2018-09-17T16:40:56.291Z,7.23
2018-09-17T16:43:25.068Z,10.90
2018-09-17T16:45:53.668Z,6.87
2018-09-17T16:48:22.430Z,8.63
2018-09-17T16:50:51.084Z,6.20
2018-09-17T16:53:20.500Z,7.67
2018-09-17T16:55:49.203Z,8.30
2018-09-17T16:58:17.909Z,8.03
2018-09-17T17:00:47.201Z,7.37
2018-09-17T17:03:16.108Z,7.12
2018-09-17T17:05:45.021Z,7.90
2018-09-17T17:08:14.097Z,11.30
2018-09-17T17:10:43.035Z,9.15
2018-09-17T17:13:12.094Z,8.63
2018-09-17T17:15:41.144Z,6.97
2018-09-17T17:18:10.562Z,6.85
2018-09-17T17:20:39.858Z,5.87
2018-09-17T17:23:08.804Z,5.75
2018-09-17T17:25:37.723Z,6.40
2018-09-17T17:28:06.729Z,6.75
2018-09-17T17:30:35.830Z,7.37
2018-09-17T17:33:04.948Z,8.18
2018-09-17T17:35:34.017Z,7.17
2018-09-17T17:38:03.031Z,7.42
2018-09-17T17:40:32.162Z,4.95
2018-09-17T17:43:01.098Z,5.40
2018-09-17T17:45:29.984Z,5.97
2018-09-17T17:47:58.958Z,8.05
2018-09-17T17:50:27.864Z,6.53
2018-09-17T17:52:56.813Z,6.65
2018-09-17T17:55:25.704Z,7.37
2018-09-17T17:57:54.699Z,7.97
2018-09-17T18:00:23.238Z,7.53
2018-09-17T18:02:52.257Z,8.65
2018-09-17T18:05:21.137Z,5.53
2018-09-17T18:07:50.071Z,8.60
2018-09-17T18:10:18.934Z,9.00
2018-09-17T18:12:47.852Z,5.87
2018-09-17T18:15:16.824Z,11.43
2018-09-17T18:17:45.914Z,9.05
2018-09-17T18:20:14.860Z,9.55
2018-09-17T18:22:43.806Z,6.33
2018-09-17T18:25:13.017Z,6.87
2018-09-17T18:27:41.906Z,6.53
2018-09-17T18:30:10.793Z,6.33
2018-09-17T18:32:39.766Z,5.62
2018-09-17T18:35:08.835Z,7.33
2018-09-17T18:37:38.021Z,8.58
2018-09-17T18:40:07.017Z,8.88
2018-09-17T18:42:36.198Z,7.95
2018-09-17T18:45:05.325Z,7.67
2018-09-17T18:47:34.426Z,6.75
2018-09-17T18:50:03.706Z,7.47
2018-09-17T18:52:32.935Z,7.90
2018-09-17T18:55:01.974Z,8.90
2018-09-17T18:57:31.109Z,9.03
2018-09-17T19:00:00.173Z,7.78
2018-09-17T19:02:29.079Z,7.47
2018-09-17T19:04:58.027Z,9.50
2018-09-17T19:07:26.965Z,10.90
2018-09-17T19:09:55.875Z,9.30
2018-09-17T19:12:25.197Z,7.95
2018-09-17T19:14:59.634Z,10.55
2018-09-17T19:17:33.900Z,7.90
2018-09-17T19:20:10.327Z,11.38
2018-09-17T19:22:45.064Z,10.03
2018-09-17T19:25:15.519Z,9.68
2018-09-17T19:27:50.160Z,9.93
2018-09-17T19:30:19.304Z,10.25
2018-09-17T19:32:48.316Z,11.78
2018-09-17T19:35:17.264Z,9.03
2018-09-17T19:37:51.549Z,8.70
2018-09-17T19:40:22.021Z,8.50
2018-09-17T19:42:51.285Z,10.78
2018-09-17T19:46:22.953Z,10.00
2018-09-17T19:48:52.029Z,9.20
2018-09-17T19:51:26.419Z,11.35
2018-09-17T19:53:55.867Z,10.63
2018-09-17T19:56:24.981Z,9.85
2018-09-17T19:58:59.283Z,9.53
2018-09-17T20:01:28.030Z,10.57
2018-09-17T20:04:00.982Z,9.95
2018-09-17T20:06:30.031Z,10.00
2018-09-17T20:08:59.070Z,9.83
2018-09-17T20:11:27.966Z,8.63
2018-09-17T20:13:56.916Z,8.30
2018-09-17T20:16:25.895Z,8.78
2018-09-17T20:18:54.811Z,8.63
2018-09-17T20:21:23.724Z,9.98
2018-09-17T20:23:52.651Z,9.15
2018-09-17T20:26:21.575Z,10.18
2018-09-17T20:28:50.513Z,9.48
2018-09-17T20:31:19.405Z,8.85
2018-09-17T20:33:48.730Z,8.33
2018-09-17T20:36:19.365Z,10.78
2018-09-17T20:38:48.379Z,10.32
2018-09-17T20:41:17.453Z,10.05
2018-09-17T20:43:46.364Z,12.30
2018-09-17T20:46:15.307Z,11.35
2018-09-17T20:48:44.753Z,10.18
2018-09-17T20:51:13.752Z,7.47
2018-09-17T20:53:42.710Z,7.12
2018-09-17T20:56:11.740Z,9.55
2018-09-17T20:58:41.088Z,9.60
2018-09-17T21:01:10.159Z,10.20
2018-09-17T21:03:39.113Z,8.40
2018-09-17T21:06:08.045Z,8.15
2018-09-17T21:08:36.959Z,11.63
2018-09-17T21:11:05.839Z,9.40
2018-09-17T21:13:34.755Z,10.85
2018-09-17T21:16:03.898Z,9.85
2018-09-17T21:18:33.006Z,9.85
2018-09-17T21:21:02.367Z,9.23
2018-09-17T21:23:31.260Z,8.03
2018-09-17T21:26:00.190Z,11.48
2018-09-17T21:28:29.374Z,8.28
2018-09-17T21:30:58.429Z,9.50
2018-09-17T21:33:27.359Z,11.25
2018-09-17T21:35:56.277Z,7.55
2018-09-17T21:38:25.156Z,8.45
2018-09-17T21:40:54.094Z,7.90
2018-09-17T21:43:23.187Z,9.13
2018-09-17T21:45:52.228Z,11.63
2018-09-17T21:48:21.156Z,10.45
2018-09-17T21:50:50.013Z,10.58
2018-09-17T21:53:18.869Z,8.15
2018-09-17T21:55:47.711Z,9.45
2018-09-17T21:58:16.717Z,10.90
2018-09-17T22:00:51.006Z,10.35
2018-09-17T22:03:20.170Z,11.53
2018-09-17T22:05:49.196Z,8.60
2018-09-17T22:08:18.048Z,11.80
2018-09-17T22:10:46.909Z,8.25
2018-09-17T22:13:15.777Z,10.72
2018-09-17T22:15:44.674Z,8.55
2018-09-17T22:18:13.561Z,9.60
2018-09-17T22:20:42.729Z,9.70
2018-09-17T22:23:11.699Z,11.12
2018-09-17T22:25:40.934Z,11.28
2018-09-17T22:28:09.900Z,10.05
2018-09-17T22:30:38.820Z,10.55
2018-09-17T22:33:07.709Z,10.95
2018-09-17T22:35:36.607Z,10.72
2018-09-17T22:38:05.651Z,11.97
2018-09-17T22:40:34.589Z,12.40
2018-09-17T22:43:03.464Z,10.50
2018-09-17T22:45:32.329Z,10.72
2018-09-17T22:48:01.219Z,9.50
2018-09-17T22:50:30.078Z,11.88
2018-09-17T22:52:58.979Z,10.93
2018-09-17T22:55:27.798Z,11.35
2018-09-17T22:57:56.689Z,13.30
2018-09-17T23:00:25.515Z,11.43
2018-09-17T23:02:54.385Z,15.72
2018-09-17T23:05:23.273Z,10.13
2018-09-17T23:07:52.160Z,10.82
2018-09-17T23:10:21.371Z,13.15
2018-09-17T23:12:50.236Z,11.05
2018-09-17T23:15:19.118Z,10.48
2018-09-17T23:17:47.994Z,9.58
2018-09-17T23:20:16.883Z,11.38
2018-09-17T23:22:46.080Z,9.80
2018-09-17T23:25:14.991Z,10.58
2018-09-17T23:27:43.841Z,8.98
2018-09-17T23:30:12.687Z,9.35
2018-09-17T23:32:41.591Z,11.30
2018-09-17T23:35:10.449Z,10.65
2018-09-17T23:37:39.303Z,8.93
2018-09-17T23:40:08.142Z,8.98
2018-09-17T23:42:37.018Z,10.15
2018-09-17T23:45:05.926Z,7.90
2018-09-17T23:47:34.783Z,8.10
2018-09-17T23:50:03.697Z,10.28
2018-09-17T23:52:32.547Z,8.88
2018-09-17T23:55:01.417Z,11.68
2018-09-17T23:57:30.277Z,10.40
2018-09-17T23:59:59.142Z,11.68
